createdAt,value
2018-11-11T00:03:08.678Z,100165.13
2018-11-11T00:06:33.487Z,100166.39
2018-11-11T00:09:58.224Z,100161.90
2018-11-11T00:13:22.959Z,100161.90
2018-11-11T00:16:47.677Z,100172.91
2018-11-11T00:20:13.110Z,100182.17
2018-11-11T00:23:37.838Z,100174.98
2018-11-11T00:27:02.720Z,100182.81
2018-11-11T00:30:27.561Z,100169.47
2018-11-11T00:33:52.347Z,100166.54
2018-11-11T00:37:17.086Z,100167.84
2018-11-11T00:40:41.885Z,100165.13
2018-11-11T00:44:06.984Z,100165.69
2018-11-11T00:47:31.738Z,100157.61
2018-11-11T00:50:56.467Z,100171.45
2018-11-11T00:54:21.238Z,100172.67
2018-11-11T00:57:46.372Z,100171.05
2018-11-11T01:01:11.129Z,100178.60
2018-11-11T01:04:35.904Z,100184.27
2018-11-11T01:08:00.610Z,100185.03
2018-11-11T01:11:25.309Z,100188.59
2018-11-11T01:14:50.043Z,100185.87
2018-11-11T01:18:14.743Z,100190.30
2018-11-11T01:21:39.479Z,100201.38
2018-11-11T01:25:04.257Z,100207.22
2018-11-11T01:28:28.926Z,100220.08
2018-11-11T01:31:53.654Z,100208.56
2018-11-11T01:35:18.425Z,100205.46
2018-11-11T01:38:43.149Z,100193.46
2018-11-11T01:42:08.480Z,100200.80
2018-11-11T01:45:33.780Z,100186.38
2018-11-11T01:48:58.493Z,100189.29
2018-11-11T01:52:23.255Z,100179.60
2018-11-11T01:55:48.019Z,100164.48
2018-11-11T01:59:12.770Z,100160.56
2018-11-11T02:02:37.515Z,100161.90
2018-11-11T02:06:02.183Z,100160.12
2018-11-11T02:09:26.892Z,100171.41
2018-11-11T02:12:51.642Z,100187.73
2018-11-11T02:16:16.330Z,100192.41
2018-11-11T02:19:41.305Z,100183.48
2018-11-11T02:23:06.172Z,100182.11
2018-11-11T02:26:30.950Z,100184.88
2018-11-11T02:29:55.696Z,100176.34
2018-11-11T02:33:20.479Z,100178.08
2018-11-11T02:36:45.160Z,100181.28
2018-11-11T02:40:15.075Z,100177.50
2018-11-11T02:43:39.763Z,100181.92
2018-11-11T02:47:04.528Z,100175.61
2018-11-11T02:50:29.250Z,100175.92
2018-11-11T02:53:53.923Z,100172.50
2018-11-11T02:57:18.542Z,100172.58
2018-11-11T03:00:43.236Z,100168.94
2018-11-11T03:04:07.989Z,100159.34
2018-11-11T03:07:32.660Z,100169.73
2018-11-11T03:10:57.295Z,100164.64
2018-11-11T03:14:21.975Z,100167.21
2018-11-11T03:17:46.683Z,100170.80
2018-11-11T03:21:11.357Z,100170.03
2018-11-11T03:24:36.043Z,100155.39
2018-11-11T03:28:00.693Z,100178.17
2018-11-11T03:31:25.402Z,100170.55
2018-11-11T03:34:50.105Z,100172.46
2018-11-11T03:38:14.750Z,100174.47
2018-11-11T03:41:39.838Z,100173.36
2018-11-11T03:45:04.557Z,100176.89
2018-11-11T03:48:29.235Z,100181.89
2018-11-11T03:51:53.914Z,100173.11
2018-11-11T03:55:18.724Z,100177.42
2018-11-11T03:58:43.453Z,100168.95
2018-11-11T04:02:08.140Z,100171.96
2018-11-11T04:05:32.753Z,100163.42
2018-11-11T04:08:57.415Z,100166.29
2018-11-11T04:12:22.092Z,100166.48
2018-11-11T04:15:46.786Z,100176.66
2018-11-11T04:19:11.493Z,100185.17
2018-11-11T04:22:36.163Z,100174.26
2018-11-11T04:26:00.894Z,100176.13
2018-11-11T04:29:25.555Z,100175.38
2018-11-11T04:32:50.253Z,100191.42
2018-11-11T04:36:14.889Z,100182.67
2018-11-11T04:39:40.083Z,100184.47
2018-11-11T04:43:04.821Z,100188.52
2018-11-11T04:46:29.514Z,100189.87
2018-11-11T04:49:54.433Z,100191.70
2018-11-11T04:53:19.095Z,100195.81
2018-11-11T04:56:43.776Z,100189.73
2018-11-11T05:00:10.603Z,100185.23
2018-11-11T05:03:35.275Z,100180.89
2018-11-11T05:06:59.958Z,100190.38
2018-11-11T05:10:24.640Z,100188.37
2018-11-11T05:13:49.302Z,100189.39
2018-11-11T05:17:14.038Z,100184.66
2018-11-11T05:20:38.684Z,100187.88
2018-11-11T05:24:03.632Z,100186.47
2018-11-11T05:27:28.360Z,100186.73
2018-11-11T05:30:53.099Z,100194.02
2018-11-11T05:34:17.691Z,100188.66
2018-11-11T05:37:42.863Z,100199.03
2018-11-11T05:41:07.783Z,100194.91
2018-11-11T05:44:32.480Z,100195.05
2018-11-11T05:47:57.217Z,100198.91
2018-11-11T05:51:21.905Z,100193.78
2018-11-11T05:54:46.921Z,100197.30
2018-11-11T05:58:11.725Z,100204.73
2018-11-11T06:01:36.672Z,100218.98
2018-11-11T06:05:01.345Z,100219.08
2018-11-11T06:08:26.236Z,100217.84
2018-11-11T06:11:50.904Z,100205.49
2018-11-11T06:15:15.733Z,100214.66
2018-11-11T06:18:40.447Z,100211.31
2018-11-11T06:22:09.791Z,100213.97
2018-11-11T06:25:35.240Z,100212.83
2018-11-11T06:29:00.045Z,100221.72
2018-11-11T06:32:24.810Z,100229.92
2018-11-11T06:35:49.572Z,100226.58
2018-11-11T06:39:14.544Z,100231.55
2018-11-11T06:42:39.536Z,100222.50
2018-11-11T06:46:04.274Z,100241.52
2018-11-11T06:49:29.050Z,100237.01
2018-11-11T06:52:53.821Z,100227.55
2018-11-11T06:56:18.471Z,100239.72
2018-11-11T06:59:43.542Z,100248.63
2018-11-11T07:03:25.034Z,100250.62
2018-11-11T07:14:41.246Z,100264.09
2018-11-11T07:18:06.173Z,100271.75
2018-11-11T07:21:30.815Z,100284.77
2018-11-11T07:24:55.479Z,100286.85
2018-11-11T07:28:20.128Z,100285.69
2018-11-11T07:31:45.028Z,100294.05
2018-11-11T07:35:10.616Z,100294.73
2018-11-11T07:38:35.265Z,100293.69
2018-11-11T07:42:00.242Z,100305.45
2018-11-11T07:45:25.119Z,100314.27
2018-11-11T07:48:49.762Z,100309.70
2018-11-11T07:52:14.428Z,100315.67
2018-11-11T07:55:39.237Z,100319.09
2018-11-11T07:59:04.175Z,100330.61
2018-11-11T08:02:28.794Z,100328.13
2018-11-11T08:05:53.495Z,100341.52
2018-11-11T08:09:18.302Z,100343.62
2018-11-11T08:12:43.205Z,100337.45
2018-11-11T08:16:08.021Z,100335.87
2018-11-11T08:19:32.932Z,100345.50
2018-11-11T08:22:57.834Z,100343.87
2018-11-11T08:26:22.511Z,100343.19
2018-11-11T08:29:47.276Z,100341.73
2018-11-11T08:33:11.966Z,100346.80
2018-11-11T08:36:36.766Z,100351.40
2018-11-11T08:40:01.515Z,100354.57
2018-11-11T08:43:26.240Z,100368.52
2018-11-11T08:46:50.955Z,100368.95
2018-11-11T08:50:15.704Z,100367.66
2018-11-11T08:53:40.378Z,100373.59
2018-11-11T08:57:05.290Z,100382.65
2018-11-11T09:00:29.951Z,100385.79
2018-11-11T09:03:54.581Z,100377.78
2018-11-11T09:07:19.404Z,100380.43
2018-11-11T09:10:44.060Z,100371.31
2018-11-11T09:14:08.736Z,100369.25
2018-11-11T09:17:33.492Z,100384.42
2018-11-11T09:20:58.205Z,100390.56
2018-11-11T09:24:22.851Z,100393.44
2018-11-11T09:27:47.565Z,100394.94
2018-11-11T09:31:12.257Z,100394.14
2018-11-11T09:34:36.928Z,100394.43
2018-11-11T09:38:01.765Z,100387.98
2018-11-11T09:41:26.463Z,100381.33
2018-11-11T09:44:51.223Z,100384.97
2018-11-11T09:48:15.876Z,100389.49
2018-11-11T09:51:40.576Z,100385.34
2018-11-11T09:55:06.050Z,100406.16
2018-11-11T09:58:30.845Z,100406.92
2018-11-11T10:01:55.808Z,100414.09
2018-11-11T10:05:25.736Z,100414.80
2018-11-11T10:08:55.449Z,100406.86
2018-11-11T10:12:35.995Z,100404.08
2018-11-11T10:16:10.298Z,100400.48
2018-11-11T10:20:40.683Z,100407.70
2018-11-11T10:24:41.076Z,100404.26
2018-11-11T10:28:08.958Z,100419.64
2018-11-11T10:31:44.002Z,100407.19
2018-11-11T10:35:13.904Z,100417.63
2018-11-11T10:38:44.013Z,100411.76
2018-11-11T10:42:13.383Z,100430.57
2018-11-11T10:45:56.724Z,100438.09
2018-11-11T10:49:25.205Z,100443.19
2018-11-11T10:52:50.024Z,100452.12
2018-11-11T10:56:14.743Z,100459.69
2018-11-11T10:59:39.470Z,100464.59
2018-11-11T11:03:08.189Z,100466.44
2018-11-11T11:06:38.124Z,100483.63
2018-11-11T11:10:02.859Z,100480.45
2018-11-11T11:13:28.597Z,100474.61
2018-11-11T11:16:53.239Z,100471.19
2018-11-11T11:20:17.987Z,100477.73
2018-11-11T11:23:42.850Z,100475.77
2018-11-11T11:27:07.839Z,100485.73
2018-11-11T11:30:32.592Z,100482.34
2018-11-11T11:33:57.251Z,100490.63
2018-11-11T11:37:21.900Z,100498.63
2018-11-11T11:40:46.649Z,100502.38
2018-11-11T11:44:11.480Z,100500.35
2018-11-11T11:47:36.266Z,100494.64
2018-11-11T11:51:00.902Z,100493.53
2018-11-11T11:54:25.632Z,100487.89
2018-11-11T11:58:22.389Z,100481.80
2018-11-11T12:01:47.090Z,100482.25
2018-11-11T12:05:11.790Z,100491.61
2018-11-11T12:08:36.542Z,100485.91
2018-11-11T12:12:01.223Z,100487.22
2018-11-11T12:15:25.921Z,100490.55
2018-11-11T12:18:50.625Z,100484.70
2018-11-11T12:22:15.336Z,100493.80
2018-11-11T12:25:40.439Z,100509.38
2018-11-11T12:29:05.396Z,100502.31
2018-11-11T12:32:30.155Z,100504.09
2018-11-11T12:35:54.860Z,100511.80
2018-11-11T12:39:19.735Z,100500.11
2018-11-11T12:42:44.675Z,100507.16
2018-11-11T12:46:09.392Z,100519.28
2018-11-11T12:49:34.061Z,100512.16
2018-11-11T12:52:58.799Z,100512.00
2018-11-11T12:56:23.521Z,100519.64
2018-11-11T12:59:48.246Z,100507.19
2018-11-11T13:03:12.947Z,100506.98
2018-11-11T13:06:37.634Z,100516.31
2018-11-11T13:10:02.341Z,100521.80
2018-11-11T13:13:27.044Z,100520.73
2018-11-11T13:16:51.797Z,100515.55
2018-11-11T13:20:17.855Z,100526.80
2018-11-11T13:23:42.507Z,100537.52
2018-11-11T13:27:07.733Z,100537.69
2018-11-11T13:30:32.375Z,100540.00
2018-11-11T13:33:57.112Z,100542.19
2018-11-11T13:37:21.788Z,100536.44
2018-11-11T13:40:46.519Z,100541.14
2018-11-11T13:44:11.157Z,100534.00
2018-11-11T13:47:35.878Z,100539.34
2018-11-11T13:51:00.481Z,100553.71
2018-11-11T13:54:25.187Z,100533.48
2018-11-11T13:57:50.342Z,100522.35
2018-11-11T14:01:15.023Z,100530.06
2018-11-11T14:04:39.717Z,100526.39
2018-11-11T14:08:04.503Z,100534.61
2018-11-11T14:11:29.161Z,100534.47
2018-11-11T14:14:53.849Z,100543.38
2018-11-11T14:18:18.596Z,100578.66
2018-11-11T14:21:43.326Z,100575.45
2018-11-11T14:25:16.940Z,100564.41
2018-11-11T14:28:41.586Z,100571.34
2018-11-11T14:32:06.452Z,100582.61
2018-11-11T14:35:31.172Z,100597.33
2018-11-11T14:38:55.871Z,100589.83
2018-11-11T14:42:20.519Z,100573.97
2018-11-11T14:45:45.200Z,100562.57
2018-11-11T14:49:10.416Z,100567.11
2018-11-11T14:52:35.077Z,100583.97
2018-11-11T14:55:59.678Z,100583.33
2018-11-11T14:59:24.350Z,100564.98
2018-11-11T15:03:01.639Z,100557.34
2018-11-11T15:06:26.407Z,100569.02
2018-11-11T15:09:51.086Z,100560.47
2018-11-11T15:13:16.480Z,100560.23
2018-11-11T15:16:41.124Z,100554.27
2018-11-11T15:20:07.484Z,100554.81
2018-11-11T15:23:32.006Z,100561.91
2018-11-11T15:26:56.703Z,100580.46
2018-11-11T15:30:25.676Z,100574.14
2018-11-11T15:33:50.350Z,100582.81
2018-11-11T15:37:15.294Z,100590.20
2018-11-11T15:40:40.049Z,100600.09
2018-11-11T15:44:04.764Z,100602.33
2018-11-11T15:47:29.454Z,100612.09
2018-11-11T15:50:54.550Z,100610.31
2018-11-11T15:54:19.469Z,100612.69
2018-11-11T15:57:44.443Z,100618.77
2018-11-11T16:01:09.163Z,100614.68
2018-11-11T16:04:33.875Z,100612.73
2018-11-11T16:07:59.372Z,100615.02
2018-11-11T16:11:24.037Z,100610.81
2018-11-11T16:14:48.683Z,100605.25
2018-11-11T16:18:14.496Z,100599.67
2018-11-11T16:21:39.150Z,100596.06
2018-11-11T16:25:03.883Z,100610.12
2018-11-11T16:28:28.539Z,100614.83
2018-11-11T16:31:53.225Z,100626.61
2018-11-11T16:35:19.012Z,100619.89
2018-11-11T16:38:43.747Z,100610.83
2018-11-11T16:42:08.422Z,100613.05
2018-11-11T16:45:34.473Z,100606.68
2018-11-11T16:48:59.139Z,100608.69
2018-11-11T16:52:23.994Z,100608.91
2018-11-11T16:55:48.728Z,100617.31
2018-11-11T16:59:13.396Z,100620.66
2018-11-11T17:02:38.109Z,100617.36
2018-11-11T17:06:02.825Z,100619.59
2018-11-11T17:09:27.528Z,100623.59
2018-11-11T17:12:53.510Z,100633.65
2018-11-11T17:16:18.244Z,100635.14
2018-11-11T17:19:42.951Z,100637.46
2018-11-11T17:23:08.519Z,100639.44
2018-11-11T17:26:33.187Z,100639.64
2018-11-11T17:29:58.006Z,100648.25
2018-11-11T17:33:22.537Z,100655.84
2018-11-11T17:36:47.253Z,100663.23
2018-11-11T17:40:15.679Z,100677.24
2018-11-11T17:43:40.278Z,100691.36
2018-11-11T17:47:05.193Z,100689.88
2018-11-11T17:50:33.302Z,100681.50
2018-11-11T17:53:58.139Z,100682.21
2018-11-11T17:57:22.913Z,100680.21
2018-11-11T18:00:47.727Z,100676.98
2018-11-11T18:04:12.533Z,100681.05
2018-11-11T18:07:37.304Z,100675.68
2018-11-11T18:11:02.197Z,100675.22
2018-11-11T18:14:28.238Z,100687.52
2018-11-11T18:17:52.978Z,100694.73
2018-11-11T18:21:17.696Z,100679.06
2018-11-11T18:24:42.445Z,100672.05
2018-11-11T18:28:08.071Z,100651.50
2018-11-11T18:31:32.618Z,100633.79
2018-11-11T18:34:57.304Z,100686.49
2018-11-11T18:38:22.221Z,100729.69
2018-11-11T18:41:46.983Z,100711.61
2018-11-11T18:45:14.432Z,100703.89
2018-11-11T18:48:39.133Z,100704.36
2018-11-11T18:52:03.937Z,100739.94
2018-11-11T18:55:28.803Z,100768.02
2018-11-11T18:58:53.519Z,100773.20
2018-11-11T19:02:18.474Z,100764.20
2018-11-11T19:05:43.243Z,100758.25
2018-11-11T19:09:13.442Z,100766.17
2018-11-11T19:12:38.158Z,100765.86
2018-11-11T19:16:02.952Z,100780.03
2018-11-11T19:19:27.629Z,100780.53
2018-11-11T19:22:52.369Z,100781.48
2018-11-11T19:26:17.182Z,100780.53
2018-11-11T19:29:41.944Z,100782.22
2018-11-11T19:33:06.675Z,100782.38
2018-11-11T19:36:31.316Z,100778.25
2018-11-11T19:39:55.988Z,100807.95
2018-11-11T19:43:20.698Z,100804.06
2018-11-11T19:46:45.373Z,100816.89
2018-11-11T19:50:12.308Z,100818.15
2018-11-11T19:53:37.005Z,100781.46
2018-11-11T19:57:02.057Z,100769.03
2018-11-11T20:00:28.187Z,100776.63
2018-11-11T20:03:53.209Z,100801.69
2018-11-11T20:07:17.912Z,100822.52
2018-11-11T20:10:42.623Z,100845.31
2018-11-11T20:14:07.869Z,100869.81
2018-11-11T20:17:32.557Z,100864.76
2018-11-11T20:20:57.281Z,100865.41
2018-11-11T20:24:22.072Z,100869.20
2018-11-11T20:27:47.028Z,100872.33
2018-11-11T20:31:11.750Z,100885.28
2018-11-11T20:34:36.366Z,100883.50
2018-11-11T20:38:01.605Z,100906.44
2018-11-11T20:41:26.615Z,100910.14
2018-11-11T20:44:51.340Z,100902.18
2018-11-11T20:48:15.993Z,100899.22
2018-11-11T20:51:40.700Z,100904.34
2018-11-11T20:55:07.295Z,100908.23
2018-11-11T20:58:32.021Z,100893.94
2018-11-11T21:01:56.718Z,100912.56
2018-11-11T21:05:23.725Z,100906.25
2018-11-11T21:08:48.484Z,100904.89
2018-11-11T21:12:13.230Z,100897.41
2018-11-11T21:15:38.089Z,100911.73
2018-11-11T21:19:02.870Z,100915.84
2018-11-11T21:22:27.573Z,100922.35
2018-11-11T21:25:53.510Z,100925.55
2018-11-11T21:29:18.292Z,100920.57
2018-11-11T21:32:43.050Z,100925.99
2018-11-11T21:36:07.490Z,100937.12
2018-11-11T21:39:32.219Z,100940.51
2018-11-11T21:42:57.413Z,100956.99
2018-11-11T21:46:22.107Z,100938.22
2018-11-11T21:49:46.847Z,100944.54
2018-11-11T21:53:26.580Z,100946.66
2018-11-11T21:56:51.284Z,100952.50
2018-11-11T22:00:15.958Z,100941.60
2018-11-11T22:03:40.803Z,100939.98
2018-11-11T22:07:05.768Z,100949.46
2018-11-11T22:10:30.417Z,100946.96
2018-11-11T22:13:55.162Z,100953.17
2018-11-11T22:17:19.833Z,100970.62
2018-11-11T22:20:44.532Z,100983.11
2018-11-11T22:24:08.831Z,100981.70
2018-11-11T22:27:33.559Z,100987.67
2018-11-11T22:30:58.355Z,101005.94
2018-11-11T22:34:23.032Z,101004.45
2018-11-11T22:37:47.730Z,101009.69
2018-11-11T22:41:12.341Z,101015.83
2018-11-11T22:44:36.992Z,101017.63
2018-11-11T22:48:01.691Z,101023.29
2018-11-11T22:51:26.343Z,101030.04
2018-11-11T22:54:52.184Z,101024.92
2018-11-11T22:58:16.898Z,101023.66
2018-11-11T23:01:41.694Z,101019.33
2018-11-11T23:05:06.557Z,101021.73
2018-11-11T23:08:31.312Z,101033.92
2018-11-11T23:11:56.025Z,101047.35
2018-11-11T23:15:22.039Z,101051.41
2018-11-11T23:18:46.770Z,101043.03
2018-11-11T23:22:11.440Z,101043.03
2018-11-11T23:25:36.191Z,101033.00
2018-11-11T23:29:00.879Z,101030.72
2018-11-11T23:32:25.618Z,101035.76
2018-11-11T23:35:50.353Z,101043.59
2018-11-11T23:39:15.060Z,101044.31
2018-11-11T23:42:40.209Z,101030.53
2018-11-11T23:46:04.970Z,101027.94
2018-11-11T23:49:29.635Z,101039.14
2018-11-11T23:52:54.309Z,101049.16
2018-11-11T23:56:19.012Z,101041.87
2018-11-11T23:59:43.735Z,101045.55
